sensor_id;sensor_type;location;lat;lon;timestamp;temperature;humidity
13464;DHT22;6804;48.774;9.174;2024-01-11T00:00:21;0.50;99.90
13464;DHT22;6804;48.774;9.174;2024-01-11T00:02:51;0.50;99.90
13464;DHT22;6804;48.774;9.174;2024-01-11T00:05:19;0.60;99.90
13464;DHT22;6804;48.774;9.174;2024-01-11T00:07:51;0.60;99.90
13464;DHT22;6804;48.774;9.174;2024-01-11T00:10:19;0.60;99.90
13464;DHT22;6804;48.774;9.174;2024-01-11T00:12:47;0.60;99.90
13464;DHT22;6804;48.774;9.174;2024-01-11T00:15:14;0.50;99.90
13464;DHT22;6804;48.774;9.174;2024-01-11T00:17:48;0.20;99.90
13464;DHT22;6804;48.774;9.174;2024-01-11T00:20:18;0.00;99.90
13464;DHT22;6804;48.774;9.174;2024-01-11T00:22:46;0.00;99.90
13464;DHT22;6804;48.774;9.174;2024-01-11T00:25:18;-0.10;99.90
13464;DHT22;6804;48.774;9.174;2024-01-11T00:27:49;0.10;99.90
13464;DHT22;6804;48.774;9.174;2024-01-11T00:30:16;0.20;99.90
13464;DHT22;6804;48.774;9.174;2024-01-11T00:33:03;0.30;99.90
13464;DHT22;6804;48.774;9.174;2024-01-11T00:35:34;0.40;99.90
13464;DHT22;6804;48.774;9.174;2024-01-11T00:38:02;0.50;99.90
13464;DHT22;6804;48.774;9.174;2024-01-11T00:40:30;0.60;99.90
13464;DHT22;6804;48.774;9.174;2024-01-11T00:42:59;0.60;99.90
13464;DHT22;6804;48.774;9.174;2024-01-11T00:45:45;0.70;99.90
13464;DHT22;6804;48.774;9.174;2024-01-11T00:48:15;0.70;99.90
13464;DHT22;6804;48.774;9.174;2024-01-11T00:50:45;0.70;99.90
13464;DHT22;6804;48.774;9.174;2024-01-11T00:53:15;0.70;99.90
13464;DHT22;6804;48.774;9.174;2024-01-11T00:55:46;0.70;99.90
13464;DHT22;6804;48.774;9.174;2024-01-11T00:58:16;0.70;99.90
13464;DHT22;6804;48.774;9.174;2024-01-11T01:00:43;0.60;99.90
13464;DHT22;6804;48.774;9.174;2024-01-11T01:03:11;0.50;99.90
13464;DHT22;6804;48.774;9.174;2024-01-11T01:05:40;0.20;99.90
13464;DHT22;6804;48.774;9.174;2024-01-11T01:08:11;0.00;99.90
13464;DHT22;6804;48.774;9.174;2024-01-11T01:10:38;-0.10;99.90
13464;DHT22;6804;48.774;9.174;2024-01-11T01:13:10;-0.20;99.90
13464;DHT22;6804;48.774;9.174;2024-01-11T01:15:40;-0.20;99.90
13464;DHT22;6804;48.774;9.174;2024-01-11T01:18:10;-0.30;99.90
13464;DHT22;6804;48.774;9.174;2024-01-11T01:20:40;-0.30;99.90
13464;DHT22;6804;48.774;9.174;2024-01-11T01:23:09;-0.20;99.90
13464;DHT22;6804;48.774;9.174;2024-01-11T01:25:36;-0.10;99.90
13464;DHT22;6804;48.774;9.174;2024-01-11T01:28:04;-0.10;99.90
13464;DHT22;6804;48.774;9.174;2024-01-11T01:30:33;-0.10;99.90
13464;DHT22;6804;48.774;9.174;2024-01-11T01:33:03;0.00;99.90
13464;DHT22;6804;48.774;9.174;2024-01-11T01:35:33;0.00;99.90
13464;DHT22;6804;48.774;9.174;2024-01-11T01:38:01;0.00;99.90
13464;DHT22;6804;48.774;9.174;2024-01-11T01:40:30;-0.10;99.90
13464;DHT22;6804;48.774;9.174;2024-01-11T01:43:07;-0.20;99.90
13464;DHT22;6804;48.774;9.174;2024-01-11T01:45:37;-0.10;99.90
13464;DHT22;6804;48.774;9.174;2024-01-11T01:48:06;-0.10;99.90
13464;DHT22;6804;48.774;9.174;2024-01-11T01:50:33;-0.30;99.90
13464;DHT22;6804;48.774;9.174;2024-01-11T01:53:02;-0.50;99.90
13464;DHT22;6804;48.774;9.174;2024-01-11T01:55:30;-0.60;99.90
13464;DHT22;6804;48.774;9.174;2024-01-11T01:57:58;-0.50;99.90
13464;DHT22;6804;48.774;9.174;2024-01-11T02:00:29;-0.40;99.90
13464;DHT22;6804;48.774;9.174;2024-01-11T02:02:58;-0.30;99.90
13464;DHT22;6804;48.774;9.174;2024-01-11T02:05:29;-0.20;99.90
13464;DHT22;6804;48.774;9.174;2024-01-11T02:07:57;-0.10;99.90
13464;DHT22;6804;48.774;9.174;2024-01-11T02:10:33;0.00;99.90
13464;DHT22;6804;48.774;9.174;2024-01-11T02:13:03;0.10;99.90
13464;DHT22;6804;48.774;9.174;2024-01-11T02:15:34;0.10;99.90
13464;DHT22;6804;48.774;9.174;2024-01-11T02:18:06;0.00;99.90
13464;DHT22;6804;48.774;9.174;2024-01-11T02:20:34;0.00;99.90
13464;DHT22;6804;48.774;9.174;2024-01-11T02:23:05;0.00;99.90
13464;DHT22;6804;48.774;9.174;2024-01-11T02:25:41;0.10;99.90
13464;DHT22;6804;48.774;9.174;2024-01-11T02:28:10;0.10;99.90
13464;DHT22;6804;48.774;9.174;2024-01-11T02:30:38;0.10;99.90
13464;DHT22;6804;48.774;9.174;2024-01-11T02:33:05;0.10;99.90
13464;DHT22;6804;48.774;9.174;2024-01-11T02:35:34;0.20;99.90
13464;DHT22;6804;48.774;9.174;2024-01-11T02:38:05;0.20;99.90
13464;DHT22;6804;48.774;9.174;2024-01-11T02:40:33;0.20;99.90
13464;DHT22;6804;48.774;9.174;2024-01-11T02:43:27;0.30;99.90
13464;DHT22;6804;48.774;9.174;2024-01-11T02:45:55;0.20;99.90
13464;DHT22;6804;48.774;9.174;2024-01-11T02:48:28;0.10;99.90
13464;DHT22;6804;48.774;9.174;2024-01-11T02:50:56;0.00;99.90
13464;DHT22;6804;48.774;9.174;2024-01-11T02:53:24;-0.10;99.90
13464;DHT22;6804;48.774;9.174;2024-01-11T02:55:54;-0.10;99.90
13464;DHT22;6804;48.774;9.174;2024-01-11T02:58:27;-0.10;99.90
13464;DHT22;6804;48.774;9.174;2024-01-11T03:00:54;0.00;99.90
13464;DHT22;6804;48.774;9.174;2024-01-11T03:03:23;-0.10;99.90
13464;DHT22;6804;48.774;9.174;2024-01-11T03:05:53;-0.10;99.90
13464;DHT22;6804;48.774;9.174;2024-01-11T03:08:20;-0.20;99.90
13464;DHT22;6804;48.774;9.174;2024-01-11T03:10:56;-0.20;99.90
13464;DHT22;6804;48.774;9.174;2024-01-11T03:13:24;-0.20;99.90
13464;DHT22;6804;48.774;9.174;2024-01-11T03:15:53;-0.10;99.90
13464;DHT22;6804;48.774;9.174;2024-01-11T03:18:21;-0.10;99.90
13464;DHT22;6804;48.774;9.174;2024-01-11T03:20:48;0.00;99.90
13464;DHT22;6804;48.774;9.174;2024-01-11T03:23:15;0.00;99.90
13464;DHT22;6804;48.774;9.174;2024-01-11T03:25:42;-0.10;99.90
13464;DHT22;6804;48.774;9.174;2024-01-11T03:28:10;-0.10;99.90
13464;DHT22;6804;48.774;9.174;2024-01-11T03:30:41;-0.10;99.90
13464;DHT22;6804;48.774;9.174;2024-01-11T03:33:10;-0.20;99.90
13464;DHT22;6804;48.774;9.174;2024-01-11T03:35:38;-0.10;99.90
13464;DHT22;6804;48.774;9.174;2024-01-11T03:38:09;-0.10;99.90
13464;DHT22;6804;48.774;9.174;2024-01-11T03:40:37;-0.20;99.90
13464;DHT22;6804;48.774;9.174;2024-01-11T03:43:04;-0.50;99.90
13464;DHT22;6804;48.774;9.174;2024-01-11T03:45:34;-0.60;99.90
13464;DHT22;6804;48.774;9.174;2024-01-11T03:48:01;-0.50;99.90
13464;DHT22;6804;48.774;9.174;2024-01-11T03:50:32;-0.50;99.90
13464;DHT22;6804;48.774;9.174;2024-01-11T03:53:00;-0.40;99.90
13464;DHT22;6804;48.774;9.174;2024-01-11T03:55:34;-0.40;99.90
13464;DHT22;6804;48.774;9.174;2024-01-11T03:58:01;-0.50;99.90
13464;DHT22;6804;48.774;9.174;2024-01-11T04:00:29;-0.50;99.90
13464;DHT22;6804;48.774;9.174;2024-01-11T04:02:59;-0.40;99.90
13464;DHT22;6804;48.774;9.174;2024-01-11T04:05:32;-0.40;99.90
13464;DHT22;6804;48.774;9.174;2024-01-11T04:08:02;-0.50;99.90
13464;DHT22;6804;48.774;9.174;2024-01-11T04:10:31;-0.40;99.90
13464;DHT22;6804;48.774;9.174;2024-01-11T04:13:04;-0.50;99.90
13464;DHT22;6804;48.774;9.174;2024-01-11T04:15:33;-0.40;99.90
13464;DHT22;6804;48.774;9.174;2024-01-11T04:18:00;-0.40;99.90
13464;DHT22;6804;48.774;9.174;2024-01-11T04:20:34;-0.40;99.90
13464;DHT22;6804;48.774;9.174;2024-01-11T04:23:04;-0.40;99.90
13464;DHT22;6804;48.774;9.174;2024-01-11T04:25:31;-0.40;99.90
13464;DHT22;6804;48.774;9.174;2024-01-11T04:28:02;-0.50;99.90
13464;DHT22;6804;48.774;9.174;2024-01-11T04:30:30;-0.50;99.90
13464;DHT22;6804;48.774;9.174;2024-01-11T04:32:59;-0.50;99.90
13464;DHT22;6804;48.774;9.174;2024-01-11T04:35:26;-0.50;99.90
13464;DHT22;6804;48.774;9.174;2024-01-11T04:37:55;-0.50;99.90
13464;DHT22;6804;48.774;9.174;2024-01-11T04:40:22;-0.50;99.90
13464;DHT22;6804;48.774;9.174;2024-01-11T04:42:50;-0.50;99.90
13464;DHT22;6804;48.774;9.174;2024-01-11T04:45:18;-0.60;99.90
13464;DHT22;6804;48.774;9.174;2024-01-11T04:47:51;-0.60;99.90
13464;DHT22;6804;48.774;9.174;2024-01-11T04:50:21;-0.70;99.90
13464;DHT22;6804;48.774;9.174;2024-01-11T04:52:51;-0.80;99.90
13464;DHT22;6804;48.774;9.174;2024-01-11T04:55:23;-1.10;99.90
13464;DHT22;6804;48.774;9.174;2024-01-11T04:57:50;-1.20;99.90
13464;DHT22;6804;48.774;9.174;2024-01-11T05:00:18;-1.30;99.90
13464;DHT22;6804;48.774;9.174;2024-01-11T05:02:45;-1.50;99.90
13464;DHT22;6804;48.774;9.174;2024-01-11T05:05:16;-1.50;99.90
13464;DHT22;6804;48.774;9.174;2024-01-11T05:07:46;-1.50;99.90
13464;DHT22;6804;48.774;9.174;2024-01-11T05:10:14;-1.50;99.90
13464;DHT22;6804;48.774;9.174;2024-01-11T05:12:43;-1.40;99.90
13464;DHT22;6804;48.774;9.174;2024-01-11T05:15:11;-1.30;99.90
13464;DHT22;6804;48.774;9.174;2024-01-11T05:17:38;-1.10;99.90
13464;DHT22;6804;48.774;9.174;2024-01-11T05:20:07;-1.10;99.90
13464;DHT22;6804;48.774;9.174;2024-01-11T05:22:34;-1.00;99.90
13464;DHT22;6804;48.774;9.174;2024-01-11T05:25:02;-0.90;99.90
13464;DHT22;6804;48.774;9.174;2024-01-11T05:27:29;-0.90;99.90
13464;DHT22;6804;48.774;9.174;2024-01-11T05:30:00;-0.80;99.90
13464;DHT22;6804;48.774;9.174;2024-01-11T05:32:27;-0.80;99.90
13464;DHT22;6804;48.774;9.174;2024-01-11T05:35:15;-0.70;99.90
13464;DHT22;6804;48.774;9.174;2024-01-11T05:37:43;-0.70;99.90
13464;DHT22;6804;48.774;9.174;2024-01-11T05:40:12;-0.60;99.90
13464;DHT22;6804;48.774;9.174;2024-01-11T05:42:45;-0.70;99.90
13464;DHT22;6804;48.774;9.174;2024-01-11T05:45:17;-0.70;99.90
13464;DHT22;6804;48.774;9.174;2024-01-11T05:48:06;-0.70;99.90
13464;DHT22;6804;48.774;9.174;2024-01-11T05:50:36;-0.80;99.90
13464;DHT22;6804;48.774;9.174;2024-01-11T05:53:05;-0.90;99.90
13464;DHT22;6804;48.774;9.174;2024-01-11T05:55:33;-1.00;99.90
13464;DHT22;6804;48.774;9.174;2024-01-11T05:58:23;-1.10;99.90
13464;DHT22;6804;48.774;9.174;2024-01-11T06:00:55;-1.10;99.90
13464;DHT22;6804;48.774;9.174;2024-01-11T06:03:23;-1.00;99.90
13464;DHT22;6804;48.774;9.174;2024-01-11T06:05:54;-0.90;99.90
13464;DHT22;6804;48.774;9.174;2024-01-11T06:08:26;-0.70;99.90
13464;DHT22;6804;48.774;9.174;2024-01-11T06:10:54;-0.70;99.90
13464;DHT22;6804;48.774;9.174;2024-01-11T06:13:26;-0.60;99.90
13464;DHT22;6804;48.774;9.174;2024-01-11T06:15:56;-0.60;99.90
13464;DHT22;6804;48.774;9.174;2024-01-11T06:18:23;-0.60;99.90
13464;DHT22;6804;48.774;9.174;2024-01-11T06:20:51;-0.60;99.90
13464;DHT22;6804;48.774;9.174;2024-01-11T06:23:18;-0.60;99.90
13464;DHT22;6804;48.774;9.174;2024-01-11T06:25:50;-0.80;99.90
13464;DHT22;6804;48.774;9.174;2024-01-11T06:28:17;-0.90;99.90
13464;DHT22;6804;48.774;9.174;2024-01-11T06:30:47;-0.90;99.90
13464;DHT22;6804;48.774;9.174;2024-01-11T06:33:18;-0.80;99.90
13464;DHT22;6804;48.774;9.174;2024-01-11T06:36:05;-0.70;99.90
13464;DHT22;6804;48.774;9.174;2024-01-11T06:38:36;-0.70;99.90
13464;DHT22;6804;48.774;9.174;2024-01-11T06:41:04;-0.70;99.90
13464;DHT22;6804;48.774;9.174;2024-01-11T06:43:32;-0.60;99.90
13464;DHT22;6804;48.774;9.174;2024-01-11T06:46:06;-0.70;99.90
13464;DHT22;6804;48.774;9.174;2024-01-11T06:48:39;-0.70;99.90
13464;DHT22;6804;48.774;9.174;2024-01-11T06:51:09;-0.70;99.90
13464;DHT22;6804;48.774;9.174;2024-01-11T06:53:37;-0.70;99.90
13464;DHT22;6804;48.774;9.174;2024-01-11T06:56:14;-0.80;99.90
13464;DHT22;6804;48.774;9.174;2024-01-11T06:58:44;-1.00;99.90
13464;DHT22;6804;48.774;9.174;2024-01-11T07:01:14;-1.10;99.90
13464;DHT22;6804;48.774;9.174;2024-01-11T07:03:50;-1.00;99.90
13464;DHT22;6804;48.774;9.174;2024-01-11T07:06:18;-1.00;99.90
13464;DHT22;6804;48.774;9.174;2024-01-11T07:08:49;-0.90;99.90
13464;DHT22;6804;48.774;9.174;2024-01-11T07:11:16;-0.90;99.90
13464;DHT22;6804;48.774;9.174;2024-01-11T07:13:48;-0.90;99.90
13464;DHT22;6804;48.774;9.174;2024-01-11T07:16:15;-0.80;99.90
13464;DHT22;6804;48.774;9.174;2024-01-11T07:18:50;-0.80;99.90
13464;DHT22;6804;48.774;9.174;2024-01-11T07:21:21;-1.00;99.90
13464;DHT22;6804;48.774;9.174;2024-01-11T07:23:56;-1.10;99.90
13464;DHT22;6804;48.774;9.174;2024-01-11T07:26:27;-1.10;99.90
13464;DHT22;6804;48.774;9.174;2024-01-11T07:28:56;-1.10;99.90
13464;DHT22;6804;48.774;9.174;2024-01-11T07:31:24;-1.10;99.90
13464;DHT22;6804;48.774;9.174;2024-01-11T07:33:57;-1.00;99.90
13464;DHT22;6804;48.774;9.174;2024-01-11T07:36:30;-0.80;99.90
13464;DHT22;6804;48.774;9.174;2024-01-11T07:38:59;-0.70;99.90
13464;DHT22;6804;48.774;9.174;2024-01-11T07:41:26;-0.60;99.90
13464;DHT22;6804;48.774;9.174;2024-01-11T07:43:54;-0.70;99.90
13464;DHT22;6804;48.774;9.174;2024-01-11T07:46:32;-0.80;99.90
13464;DHT22;6804;48.774;9.174;2024-01-11T07:49:02;-0.90;99.90
13464;DHT22;6804;48.774;9.174;2024-01-11T07:51:30;-0.90;99.90
13464;DHT22;6804;48.774;9.174;2024-01-11T07:53:59;-0.80;99.90
13464;DHT22;6804;48.774;9.174;2024-01-11T07:56:26;-0.90;99.90
13464;DHT22;6804;48.774;9.174;2024-01-11T07:58:57;-0.90;99.90
13464;DHT22;6804;48.774;9.174;2024-01-11T08:01:32;-0.80;99.90
13464;DHT22;6804;48.774;9.174;2024-01-11T08:04:03;-0.70;99.90
13464;DHT22;6804;48.774;9.174;2024-01-11T08:06:31;-0.60;99.90
13464;DHT22;6804;48.774;9.174;2024-01-11T08:08:59;-0.50;99.90
13464;DHT22;6804;48.774;9.174;2024-01-11T08:11:29;-0.50;99.90
13464;DHT22;6804;48.774;9.174;2024-01-11T08:13:57;-0.80;99.90
13464;DHT22;6804;48.774;9.174;2024-01-11T08:16:26;-0.90;99.90
13464;DHT22;6804;48.774;9.174;2024-01-11T08:18:54;-1.10;99.90
13464;DHT22;6804;48.774;9.174;2024-01-11T08:21:23;-1.60;99.90
13464;DHT22;6804;48.774;9.174;2024-01-11T08:23:52;-1.60;99.90
13464;DHT22;6804;48.774;9.174;2024-01-11T08:26:41;-1.80;99.90
13464;DHT22;6804;48.774;9.174;2024-01-11T08:29:30;-1.80;99.90
13464;DHT22;6804;48.774;9.174;2024-01-11T08:32:16;-1.80;99.90
13464;DHT22;6804;48.774;9.174;2024-01-11T08:34:45;-1.90;99.90
13464;DHT22;6804;48.774;9.174;2024-01-11T08:37:14;-2.00;99.90
13464;DHT22;6804;48.774;9.174;2024-01-11T08:39:41;-2.00;99.90
13464;DHT22;6804;48.774;9.174;2024-01-11T08:42:12;-2.10;99.90
13464;DHT22;6804;48.774;9.174;2024-01-11T08:44:41;-2.10;99.90
13464;DHT22;6804;48.774;9.174;2024-01-11T08:47:29;-2.00;99.90
13464;DHT22;6804;48.774;9.174;2024-01-11T08:49:58;-1.90;99.90
13464;DHT22;6804;48.774;9.174;2024-01-11T08:52:34;-1.70;99.90
13464;DHT22;6804;48.774;9.174;2024-01-11T08:55:04;-1.60;99.90
13464;DHT22;6804;48.774;9.174;2024-01-11T08:57:32;-1.40;99.90
13464;DHT22;6804;48.774;9.174;2024-01-11T09:00:02;-1.20;99.90
13464;DHT22;6804;48.774;9.174;2024-01-11T09:02:30;-1.00;99.90
13464;DHT22;6804;48.774;9.174;2024-01-11T09:05:00;-0.90;99.90
13464;DHT22;6804;48.774;9.174;2024-01-11T09:07:28;-0.70;99.90
13464;DHT22;6804;48.774;9.174;2024-01-11T09:09:57;-0.50;99.90
13464;DHT22;6804;48.774;9.174;2024-01-11T09:12:25;-0.40;99.90
13464;DHT22;6804;48.774;9.174;2024-01-11T09:14:55;-0.20;99.90
13464;DHT22;6804;48.774;9.174;2024-01-11T09:17:23;-0.10;99.90
13464;DHT22;6804;48.774;9.174;2024-01-11T09:19:51;0.00;99.90
13464;DHT22;6804;48.774;9.174;2024-01-11T09:22:19;0.10;99.90
13464;DHT22;6804;48.774;9.174;2024-01-11T09:24:46;0.10;99.90
13464;DHT22;6804;48.774;9.174;2024-01-11T09:27:16;0.20;99.90
13464;DHT22;6804;48.774;9.174;2024-01-11T09:29:43;0.20;99.90
13464;DHT22;6804;48.774;9.174;2024-01-11T09:32:12;0.30;99.90
13464;DHT22;6804;48.774;9.174;2024-01-11T09:34:40;0.20;99.90
13464;DHT22;6804;48.774;9.174;2024-01-11T09:37:32;0.40;99.90
13464;DHT22;6804;48.774;9.174;2024-01-11T09:39:59;0.30;99.90
13464;DHT22;6804;48.774;9.174;2024-01-11T09:42:35;0.00;99.90
13464;DHT22;6804;48.774;9.174;2024-01-11T09:45:09;-0.40;99.90
13464;DHT22;6804;48.774;9.174;2024-01-11T09:47:40;-0.40;99.90
13464;DHT22;6804;48.774;9.174;2024-01-11T09:50:15;-0.40;99.90
13464;DHT22;6804;48.774;9.174;2024-01-11T09:52:46;-0.60;99.90
13464;DHT22;6804;48.774;9.174;2024-01-11T09:55:14;-0.70;99.90
13464;DHT22;6804;48.774;9.174;2024-01-11T09:57:44;-0.70;99.90
13464;DHT22;6804;48.774;9.174;2024-01-11T10:00:16;-0.70;99.90
13464;DHT22;6804;48.774;9.174;2024-01-11T10:02:45;-0.60;99.90
13464;DHT22;6804;48.774;9.174;2024-01-11T10:05:13;-0.50;99.90
13464;DHT22;6804;48.774;9.174;2024-01-11T10:07:40;-0.60;99.90
13464;DHT22;6804;48.774;9.174;2024-01-11T10:10:09;-0.60;99.90
13464;DHT22;6804;48.774;9.174;2024-01-11T10:12:47;-0.40;99.90
13464;DHT22;6804;48.774;9.174;2024-01-11T10:15:19;-0.30;99.90
13464;DHT22;6804;48.774;9.174;2024-01-11T10:17:53;-0.30;99.90
13464;DHT22;6804;48.774;9.174;2024-01-11T10:20:22;-0.30;99.90
13464;DHT22;6804;48.774;9.174;2024-01-11T10:22:50;-0.20;99.90
13464;DHT22;6804;48.774;9.174;2024-01-11T10:25:20;0.00;99.90
13464;DHT22;6804;48.774;9.174;2024-01-11T10:27:53;0.20;99.90
13464;DHT22;6804;48.774;9.174;2024-01-11T10:30:20;0.40;99.90
13464;DHT22;6804;48.774;9.174;2024-01-11T10:32:52;0.50;99.90
13464;DHT22;6804;48.774;9.174;2024-01-11T10:35:20;0.60;99.90
13464;DHT22;6804;48.774;9.174;2024-01-11T10:37:51;0.70;99.90
13464;DHT22;6804;48.774;9.174;2024-01-11T10:40:21;0.70;99.90
13464;DHT22;6804;48.774;9.174;2024-01-11T10:42:52;0.90;99.90
13464;DHT22;6804;48.774;9.174;2024-01-11T10:45:21;0.80;99.90
13464;DHT22;6804;48.774;9.174;2024-01-11T10:47:54;1.00;99.90
13464;DHT22;6804;48.774;9.174;2024-01-11T10:50:25;1.10;99.90
13464;DHT22;6804;48.774;9.174;2024-01-11T10:53:02;1.10;99.90
13464;DHT22;6804;48.774;9.174;2024-01-11T10:55:33;1.00;99.90
13464;DHT22;6804;48.774;9.174;2024-01-11T10:58:10;1.10;99.90
13464;DHT22;6804;48.774;9.174;2024-01-11T11:00:38;0.80;99.90
13464;DHT22;6804;48.774;9.174;2024-01-11T11:03:06;0.70;99.90
13464;DHT22;6804;48.774;9.174;2024-01-11T11:05:35;0.60;99.90
13464;DHT22;6804;48.774;9.174;2024-01-11T11:08:04;0.50;99.90
13464;DHT22;6804;48.774;9.174;2024-01-11T11:10:36;0.60;99.90
13464;DHT22;6804;48.774;9.174;2024-01-11T11:13:13;0.70;99.90
13464;DHT22;6804;48.774;9.174;2024-01-11T11:15:45;0.80;99.90
13464;DHT22;6804;48.774;9.174;2024-01-11T11:18:15;0.70;99.90
13464;DHT22;6804;48.774;9.174;2024-01-11T11:20:44;0.80;99.90
13464;DHT22;6804;48.774;9.174;2024-01-11T11:23:16;0.90;99.90
13464;DHT22;6804;48.774;9.174;2024-01-11T11:25:47;1.10;99.90
13464;DHT22;6804;48.774;9.174;2024-01-11T11:28:23;1.10;99.90
13464;DHT22;6804;48.774;9.174;2024-01-11T11:31:00;1.10;99.90
13464;DHT22;6804;48.774;9.174;2024-01-11T11:33:30;1.30;99.90
13464;DHT22;6804;48.774;9.174;2024-01-11T11:35:58;1.40;99.90
13464;DHT22;6804;48.774;9.174;2024-01-11T11:38:29;1.60;99.90
13464;DHT22;6804;48.774;9.174;2024-01-11T11:41:06;1.80;99.90
13464;DHT22;6804;48.774;9.174;2024-01-11T11:43:41;1.60;99.90
13464;DHT22;6804;48.774;9.174;2024-01-11T11:46:16;1.50;99.90
13464;DHT22;6804;48.774;9.174;2024-01-11T11:48:51;1.60;99.90
13464;DHT22;6804;48.774;9.174;2024-01-11T11:51:22;1.50;99.90
13464;DHT22;6804;48.774;9.174;2024-01-11T11:53:52;1.50;99.90
13464;DHT22;6804;48.774;9.174;2024-01-11T11:56:22;1.60;99.90
13464;DHT22;6804;48.774;9.174;2024-01-11T11:58:57;1.90;99.90
13464;DHT22;6804;48.774;9.174;2024-01-11T12:01:25;2.10;99.90
13464;DHT22;6804;48.774;9.174;2024-01-11T12:03:53;2.30;99.90
13464;DHT22;6804;48.774;9.174;2024-01-11T12:06:24;2.40;99.90
13464;DHT22;6804;48.774;9.174;2024-01-11T12:08:54;2.70;99.90
13464;DHT22;6804;48.774;9.174;2024-01-11T12:11:22;3.00;99.90
13464;DHT22;6804;48.774;9.174;2024-01-11T12:13:50;3.00;99.90
13464;DHT22;6804;48.774;9.174;2024-01-11T12:16:20;3.10;99.90
13464;DHT22;6804;48.774;9.174;2024-01-11T12:18:51;3.10;99.90
13464;DHT22;6804;48.774;9.174;2024-01-11T12:21:20;3.10;99.90
13464;DHT22;6804;48.774;9.174;2024-01-11T12:23:50;3.20;99.90
13464;DHT22;6804;48.774;9.174;2024-01-11T12:26:21;3.20;99.90
13464;DHT22;6804;48.774;9.174;2024-01-11T12:28:49;3.20;99.90
13464;DHT22;6804;48.774;9.174;2024-01-11T12:31:17;2.90;99.90
13464;DHT22;6804;48.774;9.174;2024-01-11T12:33:49;2.80;99.90
13464;DHT22;6804;48.774;9.174;2024-01-11T12:36:17;2.50;99.90
13464;DHT22;6804;48.774;9.174;2024-01-11T12:38:48;2.30;99.90
13464;DHT22;6804;48.774;9.174;2024-01-11T12:41:16;2.40;99.90
13464;DHT22;6804;48.774;9.174;2024-01-11T12:43:44;2.30;99.90
13464;DHT22;6804;48.774;9.174;2024-01-11T12:46:18;2.40;99.90
13464;DHT22;6804;48.774;9.174;2024-01-11T12:48:46;2.50;99.90
13464;DHT22;6804;48.774;9.174;2024-01-11T12:51:15;2.40;99.90
13464;DHT22;6804;48.774;9.174;2024-01-11T12:53:46;2.30;99.90
13464;DHT22;6804;48.774;9.174;2024-01-11T12:56:15;2.20;99.90
13464;DHT22;6804;48.774;9.174;2024-01-11T12:58:44;2.20;99.90
13464;DHT22;6804;48.774;9.174;2024-01-11T13:01:15;2.10;99.90
13464;DHT22;6804;48.774;9.174;2024-01-11T13:03:46;2.20;99.90
13464;DHT22;6804;48.774;9.174;2024-01-11T13:06:36;2.40;99.90
13464;DHT22;6804;48.774;9.174;2024-01-11T13:09:09;2.40;99.90
13464;DHT22;6804;48.774;9.174;2024-01-11T13:11:40;2.40;99.90
13464;DHT22;6804;48.774;9.174;2024-01-11T13:14:10;2.40;99.90
13464;DHT22;6804;48.774;9.174;2024-01-11T13:16:46;2.40;99.90
13464;DHT22;6804;48.774;9.174;2024-01-11T13:19:16;2.20;99.90
13464;DHT22;6804;48.774;9.174;2024-01-11T13:21:48;2.40;99.90
13464;DHT22;6804;48.774;9.174;2024-01-11T13:24:34;2.50;99.90
13464;DHT22;6804;48.774;9.174;2024-01-11T13:27:05;2.40;99.90
13464;DHT22;6804;48.774;9.174;2024-01-11T13:29:51;2.40;99.90
13464;DHT22;6804;48.774;9.174;2024-01-11T13:32:21;2.30;99.90
13464;DHT22;6804;48.774;9.174;2024-01-11T13:34:51;2.20;99.90
13464;DHT22;6804;48.774;9.174;2024-01-11T13:37:20;2.40;99.90
13464;DHT22;6804;48.774;9.174;2024-01-11T13:39:51;2.70;99.90
13464;DHT22;6804;48.774;9.174;2024-01-11T13:42:19;2.70;99.90
13464;DHT22;6804;48.774;9.174;2024-01-11T13:44:47;2.70;99.90
13464;DHT22;6804;48.774;9.174;2024-01-11T13:47:15;2.90;99.90
13464;DHT22;6804;48.774;9.174;2024-01-11T13:49:46;3.00;99.90
13464;DHT22;6804;48.774;9.174;2024-01-11T13:52:24;3.10;99.90
13464;DHT22;6804;48.774;9.174;2024-01-11T13:54:51;3.00;99.90
13464;DHT22;6804;48.774;9.174;2024-01-11T13:57:22;2.90;99.90
13464;DHT22;6804;48.774;9.174;2024-01-11T13:59:52;2.90;99.90
13464;DHT22;6804;48.774;9.174;2024-01-11T14:02:19;2.70;99.90
13464;DHT22;6804;48.774;9.174;2024-01-11T14:04:47;2.80;99.90
13464;DHT22;6804;48.774;9.174;2024-01-11T14:07:18;3.00;99.90
13464;DHT22;6804;48.774;9.174;2024-01-11T14:09:47;3.20;99.90
13464;DHT22;6804;48.774;9.174;2024-01-11T14:12:22;3.40;99.90
13464;DHT22;6804;48.774;9.174;2024-01-11T14:14:49;3.60;99.90
13464;DHT22;6804;48.774;9.174;2024-01-11T14:17:17;3.80;99.90
13464;DHT22;6804;48.774;9.174;2024-01-11T14:19:48;4.00;99.90
13464;DHT22;6804;48.774;9.174;2024-01-11T14:22:20;4.10;99.90
13464;DHT22;6804;48.774;9.174;2024-01-11T14:24:50;4.20;99.90
13464;DHT22;6804;48.774;9.174;2024-01-11T14:27:19;4.00;99.90
13464;DHT22;6804;48.774;9.174;2024-01-11T14:29:46;4.00;99.90
13464;DHT22;6804;48.774;9.174;2024-01-11T14:32:19;4.00;99.90
13464;DHT22;6804;48.774;9.174;2024-01-11T14:34:48;3.60;99.90
13464;DHT22;6804;48.774;9.174;2024-01-11T14:37:21;3.50;99.90
13464;DHT22;6804;48.774;9.174;2024-01-11T14:39:53;3.60;99.90
13464;DHT22;6804;48.774;9.174;2024-01-11T14:42:22;3.60;99.90
13464;DHT22;6804;48.774;9.174;2024-01-11T14:44:51;3.60;99.90
13464;DHT22;6804;48.774;9.174;2024-01-11T14:47:19;3.70;99.90
13464;DHT22;6804;48.774;9.174;2024-01-11T14:49:49;3.80;99.90
13464;DHT22;6804;48.774;9.174;2024-01-11T14:52:17;3.80;99.90
13464;DHT22;6804;48.774;9.174;2024-01-11T14:54:53;3.80;99.90
13464;DHT22;6804;48.774;9.174;2024-01-11T14:57:21;3.80;99.90
13464;DHT22;6804;48.774;9.174;2024-01-11T14:59:50;3.90;99.90
13464;DHT22;6804;48.774;9.174;2024-01-11T15:02:22;3.80;99.90
13464;DHT22;6804;48.774;9.174;2024-01-11T15:04:50;3.80;99.90
13464;DHT22;6804;48.774;9.174;2024-01-11T15:07:20;3.70;99.90
13464;DHT22;6804;48.774;9.174;2024-01-11T15:09:48;3.70;99.90
13464;DHT22;6804;48.774;9.174;2024-01-11T15:15:05;3.70;99.90
13464;DHT22;6804;48.774;9.174;2024-01-11T15:17:34;3.70;99.90
13464;DHT22;6804;48.774;9.174;2024-01-11T15:20:03;3.70;99.90
13464;DHT22;6804;48.774;9.174;2024-01-11T15:22:35;3.70;99.90
13464;DHT22;6804;48.774;9.174;2024-01-11T15:25:03;3.70;99.90
13464;DHT22;6804;48.774;9.174;2024-01-11T15:27:33;3.60;99.90
13464;DHT22;6804;48.774;9.174;2024-01-11T15:30:01;3.60;99.90
13464;DHT22;6804;48.774;9.174;2024-01-11T15:32:29;3.50;99.90
13464;DHT22;6804;48.774;9.174;2024-01-11T15:34:57;3.40;99.90
13464;DHT22;6804;48.774;9.174;2024-01-11T15:37:24;3.40;99.90
13464;DHT22;6804;48.774;9.174;2024-01-11T15:39:54;3.30;99.90
13464;DHT22;6804;48.774;9.174;2024-01-11T15:42:22;3.30;99.90
13464;DHT22;6804;48.774;9.174;2024-01-11T15:44:53;3.40;99.90
13464;DHT22;6804;48.774;9.174;2024-01-11T15:47:22;3.40;99.90
13464;DHT22;6804;48.774;9.174;2024-01-11T15:49:52;3.20;99.90
13464;DHT22;6804;48.774;9.174;2024-01-11T15:52:20;3.20;99.90
13464;DHT22;6804;48.774;9.174;2024-01-11T15:54:49;3.20;99.90
13464;DHT22;6804;48.774;9.174;2024-01-11T15:57:20;3.10;99.90
13464;DHT22;6804;48.774;9.174;2024-01-11T15:59:50;3.10;99.90
13464;DHT22;6804;48.774;9.174;2024-01-11T16:02:20;3.20;99.90
13464;DHT22;6804;48.774;9.174;2024-01-11T16:04:50;3.20;99.90
13464;DHT22;6804;48.774;9.174;2024-01-11T16:07:21;3.20;99.90
13464;DHT22;6804;48.774;9.174;2024-01-11T16:09:51;3.10;99.90
13464;DHT22;6804;48.774;9.174;2024-01-11T16:12:22;3.10;99.90
13464;DHT22;6804;48.774;9.174;2024-01-11T16:14:49;3.10;99.90
13464;DHT22;6804;48.774;9.174;2024-01-11T16:17:28;3.10;99.90